createdAt,value
2022-11-26T00:00:55.244Z,8.55
2022-11-26T00:03:23.616Z,8.75
2022-11-26T00:05:53.963Z,9.93
2022-11-26T00:08:22.848Z,8.43
2022-11-26T00:10:52.453Z,7.95
2022-11-26T00:15:54.972Z,7.45
2022-11-26T00:18:26.981Z,7.35
2022-11-26T00:21:06.550Z,7.70
2022-11-26T00:23:33.689Z,8.05
2022-11-26T00:26:03.066Z,6.93
2022-11-26T00:28:38.423Z,6.75
2022-11-26T00:31:14.668Z,7.75
2022-11-26T00:33:46.019Z,7.45
2022-11-26T00:36:24.391Z,7.30
2022-11-26T00:38:59.099Z,7.07
2022-11-26T00:41:30.258Z,7.25
2022-11-26T00:43:58.128Z,6.80
2022-11-26T00:46:25.541Z,7.15
2022-11-26T00:48:52.461Z,7.07
2022-11-26T00:51:24.693Z,7.45
2022-11-26T00:53:54.834Z,7.60
2022-11-26T00:56:22.894Z,6.85
2022-11-26T00:58:50.867Z,7.35
2022-11-26T01:01:20.736Z,7.72
2022-11-26T01:03:48.361Z,6.82
2022-11-26T01:06:26.336Z,6.50
2022-11-26T01:08:53.271Z,6.25
2022-11-26T01:11:22.094Z,6.10
2022-11-26T01:13:51.615Z,6.33
2022-11-26T01:18:49.613Z,7.75
2022-11-26T01:21:16.893Z,7.68
2022-11-26T01:23:43.838Z,8.05
2022-11-26T01:26:15.768Z,7.85
2022-11-26T01:28:42.959Z,7.78
2022-11-26T01:31:21.800Z,9.13
2022-11-26T01:33:51.789Z,6.00
2022-11-26T01:36:34.502Z,6.55
2022-11-26T01:39:22.861Z,6.28
2022-11-26T01:42:01.793Z,6.13
2022-11-26T01:44:32.523Z,6.45
2022-11-26T01:47:01.236Z,5.95
2022-11-26T01:49:36.285Z,6.50
2022-11-26T01:52:26.558Z,7.63
2022-11-26T01:54:53.881Z,7.85
2022-11-26T01:57:30.671Z,6.72
2022-11-26T02:00:05.179Z,8.35
2022-11-26T02:02:43.517Z,7.05
2022-11-26T02:05:44.453Z,7.57
2022-11-26T02:08:12.316Z,7.10
2022-11-26T02:10:38.912Z,6.82
2022-11-26T02:13:06.002Z,6.55
2022-11-26T02:15:45.689Z,6.20
2022-11-26T02:21:08.890Z,7.07
2022-11-26T02:24:12.856Z,7.55
2022-11-26T02:27:04.001Z,7.13
2022-11-26T02:29:42.670Z,7.07
2022-11-26T02:32:17.818Z,7.25
2022-11-26T02:34:53.353Z,6.82
2022-11-26T02:37:34.339Z,5.55
2022-11-26T02:40:01.055Z,6.20
2022-11-26T02:42:37.924Z,6.10
2022-11-26T02:45:07.852Z,6.85
2022-11-26T02:50:08.706Z,6.18
2022-11-26T02:52:37.303Z,5.63
2022-11-26T02:55:08.988Z,5.57
2022-11-26T02:57:43.851Z,5.32
2022-11-26T03:00:11.423Z,6.40
2022-11-26T03:02:49.830Z,5.38
2022-11-26T03:05:18.592Z,5.88
2022-11-26T03:07:51.041Z,5.63
2022-11-26T03:10:24.371Z,5.93
2022-11-26T03:12:51.652Z,6.82
2022-11-26T03:15:21.787Z,5.88
2022-11-26T03:17:51.653Z,6.80
2022-11-26T03:22:45.849Z,6.72
2022-11-26T03:25:13.581Z,6.03
2022-11-26T03:27:40.643Z,6.13
2022-11-26T03:30:07.859Z,7.18
2022-11-26T03:32:36.907Z,7.32
2022-11-26T03:35:04.258Z,7.70
2022-11-26T03:37:31.340Z,7.18
2022-11-26T03:39:57.924Z,7.00
2022-11-26T03:42:24.661Z,7.65
2022-11-26T03:44:55.324Z,7.32
2022-11-26T03:47:22.289Z,6.38
2022-11-26T03:49:49.425Z,6.72
2022-11-26T03:52:16.494Z,6.50
2022-11-26T03:54:45.833Z,5.97
2022-11-26T03:57:12.649Z,5.97
2022-11-26T03:59:39.417Z,5.82
2022-11-26T04:02:09.431Z,5.85
2022-11-26T04:04:36.414Z,5.95
2022-11-26T04:07:03.389Z,6.72
2022-11-26T04:09:33.306Z,6.72
2022-11-26T04:12:00.105Z,6.80
2022-11-26T04:14:26.721Z,6.15
2022-11-26T04:16:55.881Z,6.65
2022-11-26T04:19:22.974Z,6.38
2022-11-26T04:21:52.284Z,6.25
2022-11-26T04:24:22.241Z,6.20
2022-11-26T04:26:53.580Z,5.93
2022-11-26T04:29:23.871Z,6.57
2022-11-26T04:31:50.745Z,6.13
2022-11-26T04:34:22.959Z,4.78
2022-11-26T04:36:49.594Z,5.82
2022-11-26T04:39:18.456Z,5.97
2022-11-26T04:41:45.285Z,5.03
2022-11-26T04:44:12.029Z,5.43
2022-11-26T04:46:43.890Z,5.55
2022-11-26T04:49:10.662Z,5.45
2022-11-26T04:51:37.573Z,5.50
2022-11-26T04:54:12.713Z,5.55
2022-11-26T04:56:42.940Z,4.82
2022-11-26T04:59:10.311Z,6.28
2022-11-26T05:01:47.306Z,5.90
2022-11-26T05:04:17.368Z,5.05
2022-11-26T05:06:45.520Z,5.93
2022-11-26T05:09:12.182Z,6.45
2022-11-26T05:11:38.875Z,5.85
2022-11-26T05:14:05.463Z,6.85
2022-11-26T05:16:32.270Z,7.93
2022-11-26T05:19:00.225Z,7.50
2022-11-26T05:21:26.989Z,7.97
2022-11-26T05:23:54.120Z,6.20
2022-11-26T05:26:20.790Z,7.13
2022-11-26T05:28:50.028Z,7.10
2022-11-26T05:31:16.794Z,9.63
2022-11-26T05:33:45.750Z,10.82
2022-11-26T05:36:18.712Z,8.67
2022-11-26T05:38:45.462Z,8.48
2022-11-26T05:41:12.590Z,8.32
2022-11-26T05:43:39.746Z,8.02
2022-11-26T05:46:11.328Z,6.40
2022-11-26T05:48:38.390Z,6.82
2022-11-26T05:51:05.729Z,6.80
2022-11-26T05:53:35.147Z,5.97
2022-11-26T05:56:01.994Z,7.15
2022-11-26T05:58:28.632Z,6.32
2022-11-26T06:00:55.316Z,5.97
2022-11-26T06:03:22.167Z,6.78
2022-11-26T06:05:51.709Z,5.35
2022-11-26T06:08:18.526Z,5.53
2022-11-26T06:10:45.238Z,5.35
2022-11-26T06:13:14.455Z,5.65
2022-11-26T06:15:41.475Z,4.90
2022-11-26T06:18:09.029Z,3.83
2022-11-26T06:20:36.995Z,3.65
2022-11-26T06:23:04.089Z,4.53
2022-11-26T06:25:30.880Z,3.58
2022-11-26T06:27:58.259Z,4.00
2022-11-26T06:30:25.039Z,3.95
2022-11-26T06:32:51.802Z,5.03
2022-11-26T06:35:19.068Z,3.92
2022-11-26T06:37:45.794Z,4.45
2022-11-26T06:40:17.928Z,4.85
2022-11-26T06:42:52.315Z,4.30
2022-11-26T06:45:20.655Z,5.38
2022-11-26T06:47:48.342Z,4.85
2022-11-26T06:50:16.825Z,4.70
2022-11-26T06:52:43.584Z,4.45
2022-11-26T06:55:10.929Z,4.88
2022-11-26T06:57:40.114Z,4.60
2022-11-26T07:00:07.813Z,4.50
2022-11-26T07:02:35.031Z,5.68
2022-11-26T07:05:02.040Z,4.95
2022-11-26T07:07:28.714Z,4.50
2022-11-26T07:09:55.618Z,5.70
2022-11-26T07:12:22.355Z,4.82
2022-11-26T07:14:48.967Z,5.18
2022-11-26T07:17:18.415Z,5.43
2022-11-26T07:19:45.319Z,5.57
2022-11-26T07:22:12.302Z,5.45
2022-11-26T07:24:46.511Z,5.43
2022-11-26T07:27:13.328Z,5.57
2022-11-26T07:29:43.786Z,5.18
2022-11-26T07:32:10.980Z,5.85
2022-11-26T07:34:37.997Z,5.90
2022-11-26T07:37:05.069Z,6.10
2022-11-26T07:39:32.386Z,6.18
2022-11-26T07:41:59.277Z,6.53
2022-11-26T07:44:25.942Z,6.57
2022-11-26T07:46:52.557Z,10.77
2022-11-26T07:49:21.501Z,6.15
2022-11-26T07:54:15.670Z,6.38
2022-11-26T07:56:42.336Z,6.65
2022-11-26T07:59:10.502Z,6.13
2022-11-26T08:01:37.510Z,5.63
2022-11-26T08:04:06.188Z,4.72
2022-11-26T08:06:36.490Z,6.15
2022-11-26T08:09:06.758Z,5.43
2022-11-26T08:11:34.359Z,8.57
2022-11-26T08:14:11.167Z,5.55
2022-11-26T08:16:41.165Z,6.35
2022-11-26T08:19:12.763Z,5.13
2022-11-26T08:21:44.063Z,4.65
2022-11-26T08:24:17.227Z,5.70
2022-11-26T08:26:47.131Z,5.75
2022-11-26T08:29:14.485Z,5.28
2022-11-26T08:31:46.409Z,6.97
2022-11-26T08:34:15.564Z,5.47
2022-11-26T08:36:45.123Z,5.68
2022-11-26T08:39:20.032Z,5.20
2022-11-26T08:41:52.634Z,5.35
2022-11-26T08:44:19.997Z,5.45
2022-11-26T08:46:49.222Z,4.75
2022-11-26T08:49:17.019Z,4.85
2022-11-26T08:51:47.502Z,7.28
2022-11-26T08:54:17.022Z,4.47
2022-11-26T08:59:11.250Z,3.63
2022-11-26T09:01:40.980Z,4.70
2022-11-26T09:04:07.979Z,4.35
2022-11-26T09:06:37.384Z,4.13
2022-11-26T09:09:17.171Z,4.68
2022-11-26T09:11:48.280Z,5.03
2022-11-26T09:14:18.767Z,5.47
2022-11-26T09:16:46.272Z,4.55
2022-11-26T09:19:14.931Z,4.55
2022-11-26T09:21:42.024Z,5.03
2022-11-26T09:24:08.706Z,4.82
2022-11-26T09:26:35.566Z,4.55
2022-11-26T09:29:02.440Z,4.80
2022-11-26T09:31:29.981Z,4.53
2022-11-26T09:33:59.262Z,4.72
2022-11-26T09:36:26.527Z,4.70
2022-11-26T09:38:57.900Z,5.05
2022-11-26T09:41:48.927Z,4.68
2022-11-26T09:44:45.349Z,4.55
2022-11-26T09:47:28.168Z,3.97
2022-11-26T09:50:15.760Z,4.90
2022-11-26T09:53:09.120Z,5.18
2022-11-26T09:55:39.009Z,4.57
2022-11-26T09:58:27.209Z,4.75
2022-11-26T10:00:57.147Z,5.05
2022-11-26T10:03:30.711Z,4.53
2022-11-26T10:05:57.294Z,4.68
2022-11-26T10:08:54.848Z,5.20
2022-11-26T10:11:35.211Z,6.60
2022-11-26T10:14:22.131Z,4.97
2022-11-26T10:16:51.965Z,5.00
2022-11-26T10:19:25.274Z,6.03
2022-11-26T10:22:00.450Z,6.07
2022-11-26T10:24:35.144Z,5.72
2022-11-26T10:27:10.822Z,6.32
2022-11-26T10:29:40.884Z,7.97
2022-11-26T10:32:15.739Z,8.38
2022-11-26T10:34:54.158Z,8.57
2022-11-26T10:37:23.231Z,8.27
2022-11-26T10:40:00.883Z,8.00
2022-11-26T10:42:42.233Z,7.72
2022-11-26T10:45:24.598Z,5.95
2022-11-26T10:47:51.747Z,8.57
2022-11-26T10:53:20.213Z,12.73
2022-11-26T10:55:46.880Z,9.32
2022-11-26T10:58:21.128Z,9.45
2022-11-26T11:00:50.960Z,8.95
2022-11-26T11:03:38.492Z,7.80
2022-11-26T11:06:36.545Z,8.40
2022-11-26T11:09:26.522Z,7.95
2022-11-26T11:12:11.574Z,8.98
2022-11-26T11:14:42.971Z,5.97
2022-11-26T11:17:31.189Z,7.38
2022-11-26T11:20:01.281Z,7.60
2022-11-26T11:22:28.210Z,4.85
2022-11-26T11:24:58.368Z,3.83
2022-11-26T11:27:32.267Z,3.40
2022-11-26T11:30:02.294Z,4.43
2022-11-26T11:32:36.163Z,4.45
2022-11-26T11:35:18.641Z,4.78
2022-11-26T11:37:52.103Z,4.07
2022-11-26T11:40:27.445Z,4.35
2022-11-26T11:42:57.952Z,4.95
2022-11-26T11:45:42.389Z,4.28
2022-11-26T11:48:19.002Z,5.38
2022-11-26T11:50:56.955Z,4.72
2022-11-26T11:53:29.681Z,6.13
2022-11-26T11:56:15.306Z,5.30
2022-11-26T11:59:03.601Z,5.43
2022-11-26T12:01:59.840Z,3.90
2022-11-26T12:04:35.800Z,4.15
2022-11-26T12:07:52.252Z,4.90
2022-11-26T12:10:35.348Z,4.60
2022-11-26T12:13:05.355Z,5.30
2022-11-26T12:15:52.762Z,6.22
2022-11-26T12:18:31.630Z,4.78
2022-11-26T12:21:10.335Z,4.53
2022-11-26T12:23:47.614Z,5.93
2022-11-26T12:26:20.541Z,6.50
2022-11-26T12:28:51.862Z,6.32
2022-11-26T12:31:42.656Z,7.38
2022-11-26T12:34:22.674Z,7.38
2022-11-26T12:36:55.272Z,5.50
2022-11-26T12:39:39.824Z,5.95
2022-11-26T12:42:21.702Z,6.05
2022-11-26T12:44:53.230Z,7.90
2022-11-26T12:47:40.916Z,6.57
2022-11-26T12:50:18.315Z,7.25
2022-11-26T12:52:54.649Z,7.18
2022-11-26T12:56:05.907Z,6.82
2022-11-26T12:58:43.903Z,5.80
2022-11-26T13:01:11.629Z,5.35
2022-11-26T13:03:38.815Z,6.55
2022-11-26T13:06:38.390Z,6.13
2022-11-26T13:09:15.608Z,7.30
2022-11-26T13:12:07.760Z,6.75
2022-11-26T13:14:37.535Z,8.63
2022-11-26T13:17:18.332Z,6.63
2022-11-26T13:19:55.806Z,6.22
2022-11-26T13:22:46.898Z,8.00
2022-11-26T13:25:37.884Z,7.38
2022-11-26T13:28:35.502Z,7.50
2022-11-26T13:31:16.133Z,8.80
2022-11-26T13:33:51.853Z,8.77
2022-11-26T13:36:53.996Z,8.02
2022-11-26T13:39:58.285Z,7.53
2022-11-26T13:42:52.489Z,7.72
2022-11-26T13:45:19.062Z,7.47
2022-11-26T13:47:58.401Z,6.78
2022-11-26T13:50:43.776Z,7.90
2022-11-26T13:53:26.569Z,7.05
2022-11-26T13:55:58.450Z,7.35
2022-11-26T13:58:32.181Z,6.75
2022-11-26T14:01:39.540Z,6.13
2022-11-26T14:04:28.018Z,7.47
2022-11-26T14:07:19.242Z,6.55
2022-11-26T14:09:48.445Z,6.72
2022-11-26T14:12:16.387Z,6.43
2022-11-26T14:14:50.154Z,6.75
2022-11-26T14:17:19.273Z,6.18
2022-11-26T14:19:48.945Z,6.97
2022-11-26T14:22:21.450Z,6.15
2022-11-26T14:24:48.415Z,6.60
2022-11-26T14:27:41.767Z,6.93
2022-11-26T14:30:08.652Z,6.30
2022-11-26T14:32:40.570Z,7.75
2022-11-26T14:35:21.079Z,6.97
2022-11-26T14:37:53.567Z,6.40
2022-11-26T14:40:29.709Z,6.68
2022-11-26T14:43:08.349Z,6.85
2022-11-26T14:45:35.976Z,6.45
2022-11-26T14:48:03.996Z,6.63
2022-11-26T14:50:33.541Z,6.82
2022-11-26T14:53:04.783Z,6.50
2022-11-26T14:55:32.976Z,6.45
2022-11-26T14:58:09.736Z,6.80
2022-11-26T15:00:37.188Z,6.18
2022-11-26T15:03:04.395Z,6.22
2022-11-26T15:05:33.218Z,6.28
2022-11-26T15:08:01.204Z,5.57
2022-11-26T15:10:52.851Z,6.80
2022-11-26T15:13:34.066Z,6.38
2022-11-26T15:16:03.246Z,6.53
2022-11-26T15:18:33.018Z,5.28
2022-11-26T15:21:02.222Z,6.75
2022-11-26T15:23:36.463Z,6.55
2022-11-26T15:26:04.444Z,7.88
2022-11-26T15:28:38.492Z,6.95
2022-11-26T15:31:08.534Z,7.40
2022-11-26T15:33:37.946Z,6.88
2022-11-26T15:36:06.897Z,7.80
2022-11-26T15:38:35.962Z,6.97
2022-11-26T15:41:02.544Z,6.90
2022-11-26T15:43:36.352Z,5.72
2022-11-26T15:46:12.462Z,5.63
2022-11-26T15:48:51.974Z,6.10
2022-11-26T15:51:22.562Z,5.95
2022-11-26T15:53:50.457Z,5.30
2022-11-26T15:56:29.010Z,5.65
2022-11-26T15:58:59.123Z,6.40
2022-11-26T16:01:29.319Z,5.97
2022-11-26T16:03:56.958Z,6.75
2022-11-26T16:06:32.644Z,6.05
2022-11-26T16:09:14.783Z,6.57
2022-11-26T16:11:57.698Z,7.00
2022-11-26T16:14:34.513Z,5.57
2022-11-26T16:17:20.711Z,6.32
2022-11-26T16:19:59.174Z,6.78
2022-11-26T16:22:31.807Z,6.88
2022-11-26T16:25:20.728Z,8.63
2022-11-26T16:28:11.730Z,8.23
2022-11-26T16:30:40.284Z,6.28
2022-11-26T16:33:07.546Z,6.18
2022-11-26T16:35:50.668Z,5.38
2022-11-26T16:38:23.371Z,5.85
2022-11-26T16:40:50.601Z,6.50
2022-11-26T16:43:17.536Z,5.57
2022-11-26T16:45:44.568Z,7.72
2022-11-26T16:48:31.527Z,7.13
2022-11-26T16:50:58.081Z,5.65
2022-11-26T16:53:24.876Z,6.70
2022-11-26T16:55:53.499Z,6.57
2022-11-26T16:58:28.003Z,6.45
2022-11-26T17:00:56.065Z,5.68
2022-11-26T17:03:24.424Z,7.25
2022-11-26T17:05:56.293Z,6.72
2022-11-26T17:08:23.074Z,6.22
2022-11-26T17:10:51.310Z,6.93
2022-11-26T17:13:18.275Z,7.82
2022-11-26T17:15:45.143Z,7.20
2022-11-26T17:18:23.183Z,11.23
2022-11-26T17:20:51.118Z,12.27
2022-11-26T17:23:18.206Z,7.85
2022-11-26T17:25:48.425Z,7.53
2022-11-26T17:28:15.893Z,9.38
2022-11-26T17:30:44.549Z,7.22
2022-11-26T17:33:11.762Z,10.52
2022-11-26T17:35:38.600Z,12.95
2022-11-26T17:38:17.070Z,10.98
2022-11-26T17:40:47.797Z,8.30
2022-11-26T17:43:14.571Z,8.27
2022-11-26T17:45:41.901Z,7.50
2022-11-26T17:48:14.066Z,9.57
2022-11-26T17:50:41.531Z,7.88
2022-11-26T17:53:08.466Z,7.95
2022-11-26T17:55:39.064Z,8.35
2022-11-26T17:58:05.911Z,7.80
2022-11-26T18:00:33.080Z,7.78
2022-11-26T18:02:59.871Z,9.27
2022-11-26T18:05:26.628Z,9.55
2022-11-26T18:07:53.436Z,21.05
2022-11-26T18:10:22.571Z,8.10
2022-11-26T18:12:53.372Z,9.68
2022-11-26T18:15:23.734Z,9.43
2022-11-26T18:17:52.796Z,10.50
2022-11-26T18:20:22.186Z,10.60
2022-11-26T18:22:53.336Z,10.10
2022-11-26T18:25:20.874Z,12.82
2022-11-26T18:27:47.522Z,9.93
2022-11-26T18:30:15.175Z,10.82
2022-11-26T18:32:42.285Z,10.77
2022-11-26T18:35:09.924Z,11.35
2022-11-26T18:37:41.377Z,10.60
2022-11-26T18:40:11.858Z,10.27
2022-11-26T18:42:38.906Z,12.82
2022-11-26T18:45:11.889Z,11.77
2022-11-26T18:47:38.731Z,11.82
2022-11-26T18:50:06.411Z,10.52
2022-11-26T18:52:33.058Z,10.75
2022-11-26T18:54:59.964Z,10.50
2022-11-26T18:57:26.549Z,11.20
2022-11-26T18:59:53.175Z,11.45
2022-11-26T19:02:19.778Z,11.15
2022-11-26T19:04:46.495Z,10.80
2022-11-26T19:07:14.177Z,11.32
2022-11-26T19:09:42.023Z,13.57
2022-11-26T19:12:09.214Z,14.93
2022-11-26T19:14:36.023Z,12.63
2022-11-26T19:17:02.903Z,11.02
2022-11-26T19:19:29.667Z,13.15
2022-11-26T19:22:01.113Z,10.32
2022-11-26T19:24:28.205Z,10.30
2022-11-26T19:26:54.857Z,12.38
2022-11-26T19:29:21.596Z,13.07
2022-11-26T19:31:48.236Z,12.25
2022-11-26T19:34:15.945Z,12.65
2022-11-26T19:36:42.926Z,11.82
2022-11-26T19:39:09.579Z,13.05
2022-11-26T19:41:36.242Z,10.73
2022-11-26T19:44:07.058Z,9.80
2022-11-26T19:46:38.061Z,10.90
2022-11-26T19:49:04.698Z,10.52
2022-11-26T19:51:31.292Z,11.75
2022-11-26T19:53:57.934Z,11.35
2022-11-26T19:56:27.728Z,10.30
2022-11-26T20:01:22.398Z,11.90
2022-11-26T20:03:53.836Z,10.15
2022-11-26T20:06:23.371Z,12.00
2022-11-26T20:08:50.482Z,13.68
2022-11-26T20:11:19.138Z,14.55
2022-11-26T20:13:47.845Z,13.65
2022-11-26T20:16:21.968Z,17.60
2022-11-26T20:18:49.077Z,14.27
2022-11-26T20:21:21.790Z,15.07
2022-11-26T20:23:51.018Z,15.55
2022-11-26T20:26:29.159Z,13.55
2022-11-26T20:28:59.078Z,13.27
2022-11-26T20:31:26.319Z,12.02
2022-11-26T20:33:54.048Z,12.55
2022-11-26T20:36:22.974Z,12.85
2022-11-26T20:38:54.616Z,11.63
2022-11-26T20:41:22.537Z,11.10
2022-11-26T20:43:55.071Z,10.90
2022-11-26T20:46:26.231Z,10.07
2022-11-26T20:48:52.984Z,11.00
2022-11-26T20:51:22.336Z,10.35
2022-11-26T20:53:50.788Z,8.77
2022-11-26T20:56:20.060Z,10.05
2022-11-26T20:58:47.647Z,11.38
2022-11-26T21:01:22.563Z,10.38
2022-11-26T21:03:50.368Z,10.52
2022-11-26T21:06:20.717Z,9.65
2022-11-26T21:08:49.502Z,11.93
2022-11-26T21:11:16.572Z,9.23
2022-11-26T21:13:43.662Z,9.82
2022-11-26T21:16:14.027Z,9.82
2022-11-26T21:18:40.691Z,9.50
2022-11-26T21:21:16.253Z,10.25
2022-11-26T21:23:44.220Z,13.00
2022-11-26T21:26:14.881Z,11.18
2022-11-26T21:28:41.523Z,11.10
2022-11-26T21:31:13.489Z,10.23
2022-11-26T21:33:40.471Z,11.07
2022-11-26T21:36:09.440Z,10.20
2022-11-26T21:38:36.749Z,11.15
2022-11-26T21:41:06.471Z,12.10
2022-11-26T21:43:33.681Z,14.40
2022-11-26T21:46:02.579Z,13.32
2022-11-26T21:48:29.333Z,9.60
2022-11-26T21:50:56.138Z,12.15
2022-11-26T21:53:23.162Z,12.00
2022-11-26T21:55:49.805Z,14.82
2022-11-26T21:58:16.371Z,15.73
2022-11-26T22:00:43.076Z,15.07
2022-11-26T22:03:12.162Z,15.10
2022-11-26T22:05:38.779Z,15.00
2022-11-26T22:08:05.414Z,19.98
2022-11-26T22:10:35.966Z,13.80
2022-11-26T22:13:02.865Z,15.75
2022-11-26T22:15:29.385Z,13.88
2022-11-26T22:17:56.815Z,14.80
2022-11-26T22:20:23.404Z,15.38
2022-11-26T22:22:50.077Z,14.98
2022-11-26T22:25:16.856Z,15.60
2022-11-26T22:27:43.511Z,13.05
2022-11-26T22:30:10.375Z,13.95
2022-11-26T22:32:37.396Z,12.90
2022-11-26T22:35:04.270Z,13.65
2022-11-26T22:37:30.841Z,13.30
2022-11-26T22:39:57.441Z,13.50
2022-11-26T22:42:24.091Z,14.48
2022-11-26T22:44:50.750Z,14.07
2022-11-26T22:47:17.480Z,14.70
2022-11-26T22:49:44.057Z,14.50
2022-11-26T22:52:10.563Z,15.55
2022-11-26T22:54:37.206Z,13.85
2022-11-26T22:57:03.864Z,15.27
2022-11-26T22:59:30.698Z,14.90
2022-11-26T23:01:57.273Z,14.98
2022-11-26T23:04:23.783Z,14.50
2022-11-26T23:06:50.345Z,14.20
2022-11-26T23:09:17.001Z,14.02
2022-11-26T23:11:44.330Z,14.35
2022-11-26T23:14:12.254Z,13.15
2022-11-26T23:16:41.529Z,14.65
2022-11-26T23:19:08.827Z,14.73
2022-11-26T23:21:38.580Z,14.85
2022-11-26T23:26:34.881Z,16.20
2022-11-26T23:29:03.342Z,18.63
2022-11-26T23:31:36.397Z,20.05
2022-11-26T23:34:03.568Z,19.25
2022-11-26T23:36:31.046Z,16.52
2022-11-26T23:39:00.477Z,15.73
2022-11-26T23:41:28.180Z,19.52
2022-11-26T23:43:54.865Z,15.65
2022-11-26T23:46:23.203Z,14.85
2022-11-26T23:48:50.379Z,14.98
2022-11-26T23:51:23.290Z,15.75
2022-11-26T23:53:50.647Z,16.25
2022-11-26T23:56:20.962Z,16.88
2022-11-26T23:58:52.493Z,16.63
